Etusivu
METAR-TAF:

METAR-TAF

Lentoasemat :

Fort Stockton-Pecos County Airport

Fort Stockton, Texas, Yhdysvallat

Leveyspiiri: 30-54-43N, Pituuspiiri: 102-55-00W, korkeus merenpinnasta: 917 m

Tämänhetkinen sää

Tämä raportti tehtiin 14 minuuttia sitten, kello 09.53 UTC
Tuuli 6 kn lännestä/luoteesta
Lämpötila 9°C
Kosteus 57%
Ilmanpaine 1024 hPa
Näkyvyys: 16.1 km
selkeää

METAR: KFST 060953Z AUTO 29006KT 10SM CLR 09/01 A3024 RMK AO2 SLP208 T00940011

Aika: 04:07 (10:07 UTC)

Sääennuste

Tämä raportti tehtiin 4 tuntia ja 47 minuuttia sitten, kello 05.20 UTC
Ennuste voimassa 06. päivästä klo 06 UTC - 07. päivään klo 06 UTC
Tuuli 11 kn lännestä/luoteesta
Näkyvyys: 10 km
Hajanaisia pilviä 25000 ft:n korkeudessa
From 06. päivästä klo 1700 UTC
Tuuli 7 kn pohjoisesta
Näkyvyys: 10 km
Hajanaisia pilviä 25000 ft:n korkeudessa

TAF: KFST 060520Z 0606/0706 30011KT P6SM SCT250 FM061700 36007KT P6SM SCT250

Säähavainnot ja -ennusteet yli 4000 lentoasemalta (METAR- ja TAF-raportit).

Käytössä olevat sääasemat on merkitty karttaan keltaisilla ja punaisilla pisteillä.

Aseta hiiri pisteen päälle nähdäksesi sääaseman nimen.

Klikkaa sitten nähdäksesi säähavainnot ja -ennusteet.

Kartan vaihtaminen: klikkaa mustalla rastilla varustettuja vihreitä pisteitä, niin voit zoomata sisään; viivalla varustettua vihreää pistettä, niin voit zoomata ulos tai vihreitä nuolia, niin pääset viereisille kartoille.


METAR-TAF: